sensor_id;sensor_type;location;lat;lon;timestamp;P1;durP1;ratioP1;P2;durP2;ratioP2
32734;SDS011;19112;51.076;3.706;2024-02-21T00:02:20;14.32;;;4.15;;
32734;SDS011;19112;51.076;3.706;2024-02-21T00:04:48;16.02;;;5.22;;
32734;SDS011;19112;51.076;3.706;2024-02-21T00:07:17;15.43;;;4.25;;
32734;SDS011;19112;51.076;3.706;2024-02-21T00:09:44;12.68;;;4.07;;
32734;SDS011;19112;51.076;3.706;2024-02-21T00:12:11;14.35;;;3.92;;
32734;SDS011;19112;51.076;3.706;2024-02-21T00:14:39;13.30;;;3.80;;
32734;SDS011;19112;51.076;3.706;2024-02-21T00:17:07;13.85;;;4.28;;
32734;SDS011;19112;51.076;3.706;2024-02-21T00:19:34;11.63;;;4.07;;
32734;SDS011;19112;51.076;3.706;2024-02-21T00:22:00;12.75;;;3.45;;
32734;SDS011;19112;51.076;3.706;2024-02-21T00:24:28;12.05;;;3.63;;
32734;SDS011;19112;51.076;3.706;2024-02-21T00:26:54;11.43;;;3.53;;
32734;SDS011;19112;51.076;3.706;2024-02-21T00:29:20;12.23;;;3.75;;
32734;SDS011;19112;51.076;3.706;2024-02-21T00:31:46;13.30;;;4.32;;
32734;SDS011;19112;51.076;3.706;2024-02-21T00:34:13;17.27;;;3.80;;
32734;SDS011;19112;51.076;3.706;2024-02-21T00:36:38;12.35;;;4.20;;
32734;SDS011;19112;51.076;3.706;2024-02-21T00:39:05;11.88;;;3.67;;
32734;SDS011;19112;51.076;3.706;2024-02-21T00:41:31;12.77;;;4.03;;
32734;SDS011;19112;51.076;3.706;2024-02-21T00:43:58;11.70;;;3.83;;
32734;SDS011;19112;51.076;3.706;2024-02-21T00:46:23;16.83;;;4.18;;
32734;SDS011;19112;51.076;3.706;2024-02-21T00:48:49;12.38;;;4.32;;
32734;SDS011;19112;51.076;3.706;2024-02-21T00:51:15;13.45;;;4.45;;
32734;SDS011;19112;51.076;3.706;2024-02-21T00:53:42;21.15;;;4.40;;
32734;SDS011;19112;51.076;3.706;2024-02-21T00:56:08;14.80;;;4.57;;
32734;SDS011;19112;51.076;3.706;2024-02-21T00:58:34;15.52;;;5.00;;
32734;SDS011;19112;51.076;3.706;2024-02-21T01:01:03;17.67;;;4.95;;
32734;SDS011;19112;51.076;3.706;2024-02-21T01:03:28;19.77;;;5.70;;
32734;SDS011;19112;51.076;3.706;2024-02-21T01:05:54;16.45;;;5.00;;
32734;SDS011;19112;51.076;3.706;2024-02-21T01:08:20;18.63;;;5.30;;
32734;SDS011;19112;51.076;3.706;2024-02-21T01:10:48;19.88;;;5.72;;
32734;SDS011;19112;51.076;3.706;2024-02-21T01:13:14;20.23;;;6.30;;
32734;SDS011;19112;51.076;3.706;2024-02-21T01:15:40;23.80;;;6.85;;
32734;SDS011;19112;51.076;3.706;2024-02-21T01:18:06;18.52;;;6.53;;
32734;SDS011;19112;51.076;3.706;2024-02-21T01:20:31;21.00;;;6.00;;
32734;SDS011;19112;51.076;3.706;2024-02-21T01:22:57;27.17;;;6.95;;
32734;SDS011;19112;51.076;3.706;2024-02-21T01:25:23;23.52;;;7.07;;
32734;SDS011;19112;51.076;3.706;2024-02-21T01:27:50;22.67;;;8.05;;
32734;SDS011;19112;51.076;3.706;2024-02-21T01:30:16;24.88;;;7.82;;
32734;SDS011;19112;51.076;3.706;2024-02-21T01:32:42;21.52;;;7.03;;
32734;SDS011;19112;51.076;3.706;2024-02-21T01:35:08;25.17;;;7.05;;
32734;SDS011;19112;51.076;3.706;2024-02-21T01:37:35;26.15;;;8.05;;
32734;SDS011;19112;51.076;3.706;2024-02-21T01:40:01;30.58;;;7.97;;
32734;SDS011;19112;51.076;3.706;2024-02-21T01:42:29;26.05;;;7.90;;
32734;SDS011;19112;51.076;3.706;2024-02-21T01:44:57;23.17;;;7.22;;
32734;SDS011;19112;51.076;3.706;2024-02-21T01:47:22;26.33;;;7.75;;
32734;SDS011;19112;51.076;3.706;2024-02-21T01:49:49;25.77;;;7.53;;
32734;SDS011;19112;51.076;3.706;2024-02-21T01:52:14;27.55;;;7.85;;
32734;SDS011;19112;51.076;3.706;2024-02-21T01:54:43;29.90;;;7.70;;
32734;SDS011;19112;51.076;3.706;2024-02-21T01:57:11;28.52;;;7.50;;
32734;SDS011;19112;51.076;3.706;2024-02-21T01:59:37;24.00;;;7.55;;
32734;SDS011;19112;51.076;3.706;2024-02-21T02:02:03;24.20;;;7.72;;
32734;SDS011;19112;51.076;3.706;2024-02-21T02:04:31;21.38;;;7.25;;
32734;SDS011;19112;51.076;3.706;2024-02-21T02:06:59;31.90;;;9.93;;
32734;SDS011;19112;51.076;3.706;2024-02-21T02:09:28;25.02;;;7.90;;
32734;SDS011;19112;51.076;3.706;2024-02-21T02:11:54;25.65;;;7.88;;
32734;SDS011;19112;51.076;3.706;2024-02-21T02:14:20;29.40;;;7.05;;
32734;SDS011;19112;51.076;3.706;2024-02-21T02:16:46;23.20;;;7.25;;
32734;SDS011;19112;51.076;3.706;2024-02-21T02:19:15;26.70;;;7.55;;
32734;SDS011;19112;51.076;3.706;2024-02-21T02:21:49;25.83;;;7.13;;
32734;SDS011;19112;51.076;3.706;2024-02-21T02:24:22;28.00;;;7.18;;
32734;SDS011;19112;51.076;3.706;2024-02-21T02:26:56;23.73;;;7.63;;
32734;SDS011;19112;51.076;3.706;2024-02-21T02:29:21;21.50;;;6.18;;
32734;SDS011;19112;51.076;3.706;2024-02-21T02:31:48;29.08;;;7.70;;
32734;SDS011;19112;51.076;3.706;2024-02-21T02:36:43;26.38;;;7.15;;
32734;SDS011;19112;51.076;3.706;2024-02-21T02:39:09;26.63;;;7.13;;
32734;SDS011;19112;51.076;3.706;2024-02-21T02:41:38;24.10;;;6.90;;
32734;SDS011;19112;51.076;3.706;2024-02-21T02:44:06;25.38;;;7.32;;
32734;SDS011;19112;51.076;3.706;2024-02-21T02:46:34;23.30;;;6.15;;
32734;SDS011;19112;51.076;3.706;2024-02-21T02:51:32;22.95;;;6.93;;
32734;SDS011;19112;51.076;3.706;2024-02-21T02:53:58;25.38;;;8.13;;
32734;SDS011;19112;51.076;3.706;2024-02-21T02:56:26;24.38;;;7.05;;
32734;SDS011;19112;51.076;3.706;2024-02-21T02:58:55;27.20;;;7.57;;
32734;SDS011;19112;51.076;3.706;2024-02-21T03:01:21;29.10;;;7.50;;
32734;SDS011;19112;51.076;3.706;2024-02-21T03:03:46;25.77;;;7.28;;
32734;SDS011;19112;51.076;3.706;2024-02-21T03:06:12;25.85;;;6.53;;
32734;SDS011;19112;51.076;3.706;2024-02-21T03:08:39;31.50;;;9.65;;
32734;SDS011;19112;51.076;3.706;2024-02-21T03:11:05;24.08;;;7.72;;
32734;SDS011;19112;51.076;3.706;2024-02-21T03:13:30;27.98;;;7.43;;
32734;SDS011;19112;51.076;3.706;2024-02-21T03:15:56;28.25;;;7.45;;
32734;SDS011;19112;51.076;3.706;2024-02-21T03:18:22;38.42;;;9.55;;
32734;SDS011;19112;51.076;3.706;2024-02-21T03:20:48;26.38;;;7.13;;
32734;SDS011;19112;51.076;3.706;2024-02-21T03:23:14;31.73;;;7.55;;
32734;SDS011;19112;51.076;3.706;2024-02-21T03:25:40;27.67;;;7.82;;
32734;SDS011;19112;51.076;3.706;2024-02-21T03:28:06;29.05;;;8.02;;
32734;SDS011;19112;51.076;3.706;2024-02-21T03:30:34;23.48;;;7.07;;
32734;SDS011;19112;51.076;3.706;2024-02-21T03:33:01;26.25;;;7.57;;
32734;SDS011;19112;51.076;3.706;2024-02-21T03:35:28;31.15;;;7.82;;
32734;SDS011;19112;51.076;3.706;2024-02-21T03:37:54;22.17;;;7.68;;
32734;SDS011;19112;51.076;3.706;2024-02-21T03:40:20;26.85;;;7.55;;
32734;SDS011;19112;51.076;3.706;2024-02-21T03:42:47;30.20;;;8.35;;
32734;SDS011;19112;51.076;3.706;2024-02-21T03:45:13;30.42;;;7.90;;
32734;SDS011;19112;51.076;3.706;2024-02-21T03:47:40;26.33;;;7.72;;
32734;SDS011;19112;51.076;3.706;2024-02-21T03:50:06;26.58;;;8.38;;
32734;SDS011;19112;51.076;3.706;2024-02-21T03:52:32;31.02;;;9.38;;
32734;SDS011;19112;51.076;3.706;2024-02-21T03:54:58;32.97;;;8.52;;
32734;SDS011;19112;51.076;3.706;2024-02-21T03:57:23;23.67;;;7.78;;
32734;SDS011;19112;51.076;3.706;2024-02-21T03:59:50;30.38;;;8.73;;
32734;SDS011;19112;51.076;3.706;2024-02-21T04:02:17;28.92;;;8.02;;
32734;SDS011;19112;51.076;3.706;2024-02-21T04:04:46;27.35;;;8.48;;
32734;SDS011;19112;51.076;3.706;2024-02-21T04:07:13;27.27;;;8.23;;
32734;SDS011;19112;51.076;3.706;2024-02-21T04:09:41;30.38;;;9.07;;
32734;SDS011;19112;51.076;3.706;2024-02-21T04:12:08;30.45;;;8.82;;
32734;SDS011;19112;51.076;3.706;2024-02-21T04:14:35;30.30;;;7.28;;
32734;SDS011;19112;51.076;3.706;2024-02-21T04:17:02;28.50;;;8.30;;
32734;SDS011;19112;51.076;3.706;2024-02-21T04:19:31;20.65;;;7.93;;
32734;SDS011;19112;51.076;3.706;2024-02-21T04:21:57;28.55;;;8.43;;
32734;SDS011;19112;51.076;3.706;2024-02-21T04:24:24;25.58;;;8.48;;
32734;SDS011;19112;51.076;3.706;2024-02-21T04:26:51;28.60;;;8.02;;
32734;SDS011;19112;51.076;3.706;2024-02-21T04:29:17;25.25;;;8.70;;
32734;SDS011;19112;51.076;3.706;2024-02-21T04:31:44;30.08;;;9.15;;
32734;SDS011;19112;51.076;3.706;2024-02-21T04:34:13;27.55;;;8.85;;
32734;SDS011;19112;51.076;3.706;2024-02-21T04:36:40;25.05;;;8.52;;
32734;SDS011;19112;51.076;3.706;2024-02-21T04:39:07;31.23;;;8.63;;
32734;SDS011;19112;51.076;3.706;2024-02-21T04:41:32;28.45;;;8.70;;
32734;SDS011;19112;51.076;3.706;2024-02-21T04:43:58;27.38;;;8.82;;
32734;SDS011;19112;51.076;3.706;2024-02-21T04:46:24;28.60;;;9.27;;
32734;SDS011;19112;51.076;3.706;2024-02-21T04:48:52;27.90;;;9.07;;
32734;SDS011;19112;51.076;3.706;2024-02-21T04:51:21;30.90;;;9.32;;
32734;SDS011;19112;51.076;3.706;2024-02-21T04:53:49;29.42;;;9.18;;
32734;SDS011;19112;51.076;3.706;2024-02-21T04:56:15;31.88;;;9.23;;
32734;SDS011;19112;51.076;3.706;2024-02-21T04:58:41;27.60;;;9.45;;
32734;SDS011;19112;51.076;3.706;2024-02-21T05:01:08;25.65;;;9.40;;
32734;SDS011;19112;51.076;3.706;2024-02-21T05:03:34;31.30;;;10.20;;
32734;SDS011;19112;51.076;3.706;2024-02-21T05:06:00;25.63;;;9.20;;
32734;SDS011;19112;51.076;3.706;2024-02-21T05:08:26;28.88;;;8.98;;
32734;SDS011;19112;51.076;3.706;2024-02-21T05:10:52;31.85;;;9.32;;
32734;SDS011;19112;51.076;3.706;2024-02-21T05:13:19;25.65;;;9.20;;
32734;SDS011;19112;51.076;3.706;2024-02-21T05:15:45;27.02;;;9.98;;
32734;SDS011;19112;51.076;3.706;2024-02-21T05:18:11;25.13;;;9.45;;
32734;SDS011;19112;51.076;3.706;2024-02-21T05:20:37;30.60;;;10.23;;
32734;SDS011;19112;51.076;3.706;2024-02-21T05:23:03;26.27;;;9.27;;
32734;SDS011;19112;51.076;3.706;2024-02-21T05:25:29;24.35;;;8.95;;
32734;SDS011;19112;51.076;3.706;2024-02-21T05:27:55;28.52;;;9.30;;
32734;SDS011;19112;51.076;3.706;2024-02-21T05:30:20;25.17;;;9.23;;
32734;SDS011;19112;51.076;3.706;2024-02-21T05:32:46;27.23;;;9.25;;
32734;SDS011;19112;51.076;3.706;2024-02-21T05:35:12;26.67;;;9.93;;
32734;SDS011;19112;51.076;3.706;2024-02-21T05:37:38;27.75;;;9.40;;
32734;SDS011;19112;51.076;3.706;2024-02-21T05:40:04;30.02;;;9.32;;
32734;SDS011;19112;51.076;3.706;2024-02-21T05:42:31;22.40;;;9.05;;
32734;SDS011;19112;51.076;3.706;2024-02-21T05:44:57;27.98;;;9.43;;
32734;SDS011;19112;51.076;3.706;2024-02-21T05:47:23;32.20;;;9.38;;
32734;SDS011;19112;51.076;3.706;2024-02-21T05:49:49;28.58;;;9.55;;
32734;SDS011;19112;51.076;3.706;2024-02-21T05:52:18;29.58;;;10.43;;
32734;SDS011;19112;51.076;3.706;2024-02-21T05:54:44;24.67;;;8.88;;
32734;SDS011;19112;51.076;3.706;2024-02-21T05:57:10;27.58;;;9.13;;
32734;SDS011;19112;51.076;3.706;2024-02-21T06:02:06;30.50;;;9.73;;
32734;SDS011;19112;51.076;3.706;2024-02-21T06:04:33;26.20;;;9.68;;
32734;SDS011;19112;51.076;3.706;2024-02-21T06:06:59;31.88;;;9.68;;
32734;SDS011;19112;51.076;3.706;2024-02-21T06:09:26;31.40;;;10.35;;
32734;SDS011;19112;51.076;3.706;2024-02-21T06:11:54;23.23;;;8.82;;
32734;SDS011;19112;51.076;3.706;2024-02-21T06:16:52;26.83;;;9.70;;
32734;SDS011;19112;51.076;3.706;2024-02-21T06:19:21;30.42;;;9.48;;
32734;SDS011;19112;51.076;3.706;2024-02-21T06:21:46;25.17;;;9.40;;
32734;SDS011;19112;51.076;3.706;2024-02-21T06:24:12;27.45;;;10.07;;
32734;SDS011;19112;51.076;3.706;2024-02-21T06:26:39;30.40;;;10.50;;
32734;SDS011;19112;51.076;3.706;2024-02-21T06:29:05;31.55;;;10.30;;
32734;SDS011;19112;51.076;3.706;2024-02-21T06:31:31;28.50;;;10.18;;
32734;SDS011;19112;51.076;3.706;2024-02-21T06:33:57;26.73;;;9.45;;
32734;SDS011;19112;51.076;3.706;2024-02-21T06:36:26;29.15;;;10.75;;
32734;SDS011;19112;51.076;3.706;2024-02-21T06:38:53;27.10;;;11.02;;
32734;SDS011;19112;51.076;3.706;2024-02-21T06:41:21;22.88;;;10.43;;
32734;SDS011;19112;51.076;3.706;2024-02-21T06:43:48;30.05;;;11.63;;
32734;SDS011;19112;51.076;3.706;2024-02-21T06:46:23;28.30;;;11.15;;
32734;SDS011;19112;51.076;3.706;2024-02-21T06:49:00;29.30;;;10.93;;
32734;SDS011;19112;51.076;3.706;2024-02-21T06:51:31;31.88;;;11.05;;
32734;SDS011;19112;51.076;3.706;2024-02-21T06:53:59;27.00;;;10.13;;
32734;SDS011;19112;51.076;3.706;2024-02-21T06:56:25;24.98;;;10.52;;
32734;SDS011;19112;51.076;3.706;2024-02-21T06:58:57;27.83;;;11.55;;
32734;SDS011;19112;51.076;3.706;2024-02-21T07:01:25;31.95;;;11.18;;
32734;SDS011;19112;51.076;3.706;2024-02-21T07:03:52;29.75;;;11.70;;
32734;SDS011;19112;51.076;3.706;2024-02-21T07:06:20;32.53;;;11.25;;
32734;SDS011;19112;51.076;3.706;2024-02-21T07:08:46;34.28;;;11.35;;
32734;SDS011;19112;51.076;3.706;2024-02-21T07:11:12;27.13;;;10.63;;
32734;SDS011;19112;51.076;3.706;2024-02-21T07:13:38;28.55;;;11.18;;
32734;SDS011;19112;51.076;3.706;2024-02-21T07:16:04;31.67;;;11.68;;
32734;SDS011;19112;51.076;3.706;2024-02-21T07:18:31;30.42;;;11.13;;
32734;SDS011;19112;51.076;3.706;2024-02-21T07:20:57;29.85;;;10.38;;
32734;SDS011;19112;51.076;3.706;2024-02-21T07:23:23;29.02;;;10.38;;
32734;SDS011;19112;51.076;3.706;2024-02-21T07:28:18;29.80;;;10.10;;
32734;SDS011;19112;51.076;3.706;2024-02-21T07:30:44;27.13;;;10.43;;
32734;SDS011;19112;51.076;3.706;2024-02-21T07:33:10;30.20;;;10.80;;
32734;SDS011;19112;51.076;3.706;2024-02-21T07:35:38;25.23;;;10.25;;
32734;SDS011;19112;51.076;3.706;2024-02-21T07:38:05;33.45;;;11.40;;
32734;SDS011;19112;51.076;3.706;2024-02-21T07:40:32;28.77;;;10.82;;
32734;SDS011;19112;51.076;3.706;2024-02-21T07:43:01;32.50;;;10.65;;
32734;SDS011;19112;51.076;3.706;2024-02-21T07:45:28;29.63;;;10.60;;
32734;SDS011;19112;51.076;3.706;2024-02-21T07:47:54;25.92;;;10.40;;
32734;SDS011;19112;51.076;3.706;2024-02-21T07:50:20;27.48;;;11.13;;
32734;SDS011;19112;51.076;3.706;2024-02-21T07:52:46;31.45;;;10.52;;
32734;SDS011;19112;51.076;3.706;2024-02-21T07:55:12;24.08;;;10.35;;
32734;SDS011;19112;51.076;3.706;2024-02-21T07:57:38;28.85;;;11.20;;
32734;SDS011;19112;51.076;3.706;2024-02-21T08:00:06;30.83;;;10.90;;
32734;SDS011;19112;51.076;3.706;2024-02-21T08:02:36;30.60;;;11.23;;
32734;SDS011;19112;51.076;3.706;2024-02-21T08:05:03;30.77;;;11.38;;
32734;SDS011;19112;51.076;3.706;2024-02-21T08:07:32;31.33;;;11.35;;
32734;SDS011;19112;51.076;3.706;2024-02-21T08:09:58;24.00;;;10.95;;
32734;SDS011;19112;51.076;3.706;2024-02-21T08:12:24;27.98;;;11.45;;
32734;SDS011;19112;51.076;3.706;2024-02-21T08:14:51;28.27;;;11.13;;
32734;SDS011;19112;51.076;3.706;2024-02-21T08:17:19;28.42;;;11.45;;
32734;SDS011;19112;51.076;3.706;2024-02-21T08:19:45;27.92;;;10.75;;
32734;SDS011;19112;51.076;3.706;2024-02-21T08:22:11;28.02;;;10.43;;
32734;SDS011;19112;51.076;3.706;2024-02-21T08:24:38;28.30;;;10.50;;
32734;SDS011;19112;51.076;3.706;2024-02-21T08:27:04;28.15;;;11.32;;
32734;SDS011;19112;51.076;3.706;2024-02-21T08:29:31;28.23;;;10.32;;
32734;SDS011;19112;51.076;3.706;2024-02-21T08:31:57;28.02;;;10.43;;
32734;SDS011;19112;51.076;3.706;2024-02-21T08:34:23;27.05;;;9.98;;
32734;SDS011;19112;51.076;3.706;2024-02-21T08:36:48;32.78;;;10.00;;
32734;SDS011;19112;51.076;3.706;2024-02-21T08:39:15;30.38;;;10.73;;
32734;SDS011;19112;51.076;3.706;2024-02-21T08:41:47;22.73;;;10.13;;
32734;SDS011;19112;51.076;3.706;2024-02-21T08:44:12;28.15;;;10.30;;
32734;SDS011;19112;51.076;3.706;2024-02-21T08:46:38;29.63;;;10.70;;
32734;SDS011;19112;51.076;3.706;2024-02-21T08:51:46;30.02;;;10.57;;
32734;SDS011;19112;51.076;3.706;2024-02-21T08:54:14;28.88;;;11.32;;
32734;SDS011;19112;51.076;3.706;2024-02-21T08:56:43;34.20;;;10.88;;
32734;SDS011;19112;51.076;3.706;2024-02-21T08:59:11;28.52;;;10.20;;
32734;SDS011;19112;51.076;3.706;2024-02-21T09:01:40;27.50;;;10.70;;
32734;SDS011;19112;51.076;3.706;2024-02-21T09:04:08;25.50;;;10.68;;
32734;SDS011;19112;51.076;3.706;2024-02-21T09:06:33;31.58;;;10.60;;
32734;SDS011;19112;51.076;3.706;2024-02-21T09:11:34;25.27;;;10.40;;
32734;SDS011;19112;51.076;3.706;2024-02-21T09:14:03;28.13;;;11.38;;
32734;SDS011;19112;51.076;3.706;2024-02-21T09:16:33;35.03;;;11.60;;
32734;SDS011;19112;51.076;3.706;2024-02-21T09:19:02;30.30;;;10.77;;
32734;SDS011;19112;51.076;3.706;2024-02-21T09:21:30;27.38;;;11.23;;
32734;SDS011;19112;51.076;3.706;2024-02-21T09:23:55;29.63;;;11.02;;
32734;SDS011;19112;51.076;3.706;2024-02-21T09:26:24;22.92;;;9.77;;
32734;SDS011;19112;51.076;3.706;2024-02-21T09:28:50;28.48;;;10.43;;
32734;SDS011;19112;51.076;3.706;2024-02-21T09:31:17;26.77;;;8.45;;
32734;SDS011;19112;51.076;3.706;2024-02-21T09:33:44;22.95;;;9.85;;
32734;SDS011;19112;51.076;3.706;2024-02-21T09:36:10;27.40;;;10.05;;
32734;SDS011;19112;51.076;3.706;2024-02-21T09:38:39;23.67;;;9.48;;
32734;SDS011;19112;51.076;3.706;2024-02-21T09:41:19;27.30;;;10.15;;
32734;SDS011;19112;51.076;3.706;2024-02-21T09:43:54;26.40;;;9.60;;
32734;SDS011;19112;51.076;3.706;2024-02-21T09:46:37;26.75;;;9.68;;
32734;SDS011;19112;51.076;3.706;2024-02-21T09:52:06;23.40;;;8.80;;
32734;SDS011;19112;51.076;3.706;2024-02-21T09:54:35;26.65;;;9.18;;
32734;SDS011;19112;51.076;3.706;2024-02-21T09:57:01;25.98;;;8.80;;
32734;SDS011;19112;51.076;3.706;2024-02-21T09:59:30;24.83;;;8.43;;
32734;SDS011;19112;51.076;3.706;2024-02-21T10:01:58;20.65;;;8.32;;
32734;SDS011;19112;51.076;3.706;2024-02-21T10:04:28;24.58;;;8.38;;
32734;SDS011;19112;51.076;3.706;2024-02-21T10:06:56;24.27;;;8.90;;
32734;SDS011;19112;51.076;3.706;2024-02-21T10:09:23;25.08;;;8.55;;
32734;SDS011;19112;51.076;3.706;2024-02-21T10:11:54;22.08;;;7.72;;
32734;SDS011;19112;51.076;3.706;2024-02-21T10:14:32;21.77;;;7.63;;
32734;SDS011;19112;51.076;3.706;2024-02-21T10:16:59;22.80;;;7.95;;
32734;SDS011;19112;51.076;3.706;2024-02-21T10:19:29;22.08;;;8.60;;
32734;SDS011;19112;51.076;3.706;2024-02-21T10:22:08;24.65;;;8.00;;
32734;SDS011;19112;51.076;3.706;2024-02-21T10:24:35;23.85;;;8.93;;
32734;SDS011;19112;51.076;3.706;2024-02-21T10:29:36;21.58;;;7.47;;
32734;SDS011;19112;51.076;3.706;2024-02-21T10:32:10;20.80;;;7.45;;
32734;SDS011;19112;51.076;3.706;2024-02-21T10:34:40;18.42;;;6.55;;
32734;SDS011;19112;51.076;3.706;2024-02-21T10:37:09;19.75;;;6.70;;
32734;SDS011;19112;51.076;3.706;2024-02-21T10:39:38;19.10;;;6.50;;
32734;SDS011;19112;51.076;3.706;2024-02-21T10:42:10;21.17;;;6.97;;
32734;SDS011;19112;51.076;3.706;2024-02-21T10:44:38;23.35;;;7.53;;
32734;SDS011;19112;51.076;3.706;2024-02-21T10:47:09;20.25;;;6.93;;
32734;SDS011;19112;51.076;3.706;2024-02-21T10:49:39;21.55;;;7.55;;
32734;SDS011;19112;51.076;3.706;2024-02-21T10:54:59;25.35;;;8.27;;
32734;SDS011;19112;51.076;3.706;2024-02-21T10:57:34;23.15;;;8.48;;
32734;SDS011;19112;51.076;3.706;2024-02-21T11:00:02;22.27;;;8.93;;
32734;SDS011;19112;51.076;3.706;2024-02-21T11:02:33;23.70;;;9.10;;
32734;SDS011;19112;51.076;3.706;2024-02-21T11:04:59;21.30;;;9.93;;
32734;SDS011;19112;51.076;3.706;2024-02-21T11:07:28;21.70;;;8.65;;
32734;SDS011;19112;51.076;3.706;2024-02-21T11:09:57;23.98;;;9.55;;
32734;SDS011;19112;51.076;3.706;2024-02-21T11:12:26;21.48;;;8.60;;
32734;SDS011;19112;51.076;3.706;2024-02-21T11:14:52;19.05;;;7.93;;
32734;SDS011;19112;51.076;3.706;2024-02-21T11:17:33;18.85;;;7.25;;
32734;SDS011;19112;51.076;3.706;2024-02-21T11:20:10;25.33;;;7.57;;
32734;SDS011;19112;51.076;3.706;2024-02-21T11:25:13;21.73;;;8.15;;
32734;SDS011;19112;51.076;3.706;2024-02-21T11:27:48;20.52;;;8.52;;
32734;SDS011;19112;51.076;3.706;2024-02-21T11:30:14;21.35;;;7.97;;
32734;SDS011;19112;51.076;3.706;2024-02-21T11:32:42;23.15;;;7.85;;
32734;SDS011;19112;51.076;3.706;2024-02-21T11:35:09;19.25;;;7.32;;
32734;SDS011;19112;51.076;3.706;2024-02-21T11:37:46;20.42;;;7.13;;
32734;SDS011;19112;51.076;3.706;2024-02-21T11:40:12;19.27;;;6.88;;
32734;SDS011;19112;51.076;3.706;2024-02-21T11:42:37;20.80;;;7.60;;
32734;SDS011;19112;51.076;3.706;2024-02-21T11:45:04;18.30;;;6.55;;
32734;SDS011;19112;51.076;3.706;2024-02-21T11:47:32;20.23;;;7.43;;
32734;SDS011;19112;51.076;3.706;2024-02-21T11:54:58;21.40;;;7.25;;
32734;SDS011;19112;51.076;3.706;2024-02-21T11:57:30;16.88;;;6.65;;
32734;SDS011;19112;51.076;3.706;2024-02-21T11:59:58;19.83;;;6.68;;
32734;SDS011;19112;51.076;3.706;2024-02-21T12:02:26;21.25;;;7.03;;
32734;SDS011;19112;51.076;3.706;2024-02-21T12:04:53;18.77;;;7.30;;
32734;SDS011;19112;51.076;3.706;2024-02-21T12:07:19;19.70;;;6.55;;
32734;SDS011;19112;51.076;3.706;2024-02-21T12:09:48;19.40;;;7.00;;
32734;SDS011;19112;51.076;3.706;2024-02-21T12:12:19;17.23;;;6.47;;
32734;SDS011;19112;51.076;3.706;2024-02-21T12:14:45;21.00;;;6.78;;
32734;SDS011;19112;51.076;3.706;2024-02-21T12:17:11;19.88;;;6.63;;
32734;SDS011;19112;51.076;3.706;2024-02-21T12:19:37;19.70;;;6.85;;
32734;SDS011;19112;51.076;3.706;2024-02-21T12:22:03;19.65;;;7.18;;
32734;SDS011;19112;51.076;3.706;2024-02-21T12:24:33;16.65;;;6.55;;
32734;SDS011;19112;51.076;3.706;2024-02-21T12:27:01;18.70;;;6.70;;
32734;SDS011;19112;51.076;3.706;2024-02-21T12:29:29;19.42;;;6.93;;
32734;SDS011;19112;51.076;3.706;2024-02-21T12:31:56;19.48;;;6.85;;
32734;SDS011;19112;51.076;3.706;2024-02-21T12:34:25;20.80;;;7.45;;
32734;SDS011;19112;51.076;3.706;2024-02-21T12:36:53;19.05;;;6.47;;
32734;SDS011;19112;51.076;3.706;2024-02-21T12:39:20;16.92;;;6.95;;
32734;SDS011;19112;51.076;3.706;2024-02-21T12:41:45;19.17;;;6.38;;
32734;SDS011;19112;51.076;3.706;2024-02-21T12:44:11;15.40;;;6.03;;
32734;SDS011;19112;51.076;3.706;2024-02-21T12:46:38;22.67;;;6.50;;
32734;SDS011;19112;51.076;3.706;2024-02-21T12:49:10;20.27;;;6.25;;
32734;SDS011;19112;51.076;3.706;2024-02-21T12:51:38;15.05;;;6.53;;
32734;SDS011;19112;51.076;3.706;2024-02-21T12:54:06;16.85;;;6.43;;
32734;SDS011;19112;51.076;3.706;2024-02-21T12:56:34;18.58;;;6.38;;
32734;SDS011;19112;51.076;3.706;2024-02-21T12:59:01;16.58;;;7.35;;
32734;SDS011;19112;51.076;3.706;2024-02-21T13:01:28;21.17;;;7.00;;
32734;SDS011;19112;51.076;3.706;2024-02-21T13:03:55;17.52;;;5.95;;
32734;SDS011;19112;51.076;3.706;2024-02-21T13:06:22;17.60;;;6.07;;
32734;SDS011;19112;51.076;3.706;2024-02-21T13:11:19;13.27;;;5.60;;
32734;SDS011;19112;51.076;3.706;2024-02-21T13:13:47;18.98;;;6.35;;
32734;SDS011;19112;51.076;3.706;2024-02-21T13:16:13;20.58;;;6.80;;
32734;SDS011;19112;51.076;3.706;2024-02-21T13:18:40;22.85;;;7.53;;
32734;SDS011;19112;51.076;3.706;2024-02-21T13:21:08;19.65;;;7.65;;
32734;SDS011;19112;51.076;3.706;2024-02-21T13:23:34;22.17;;;8.23;;
32734;SDS011;19112;51.076;3.706;2024-02-21T13:25:59;19.38;;;8.05;;
32734;SDS011;19112;51.076;3.706;2024-02-21T13:28:25;18.98;;;7.93;;
32734;SDS011;19112;51.076;3.706;2024-02-21T13:30:51;22.25;;;8.95;;
32734;SDS011;19112;51.076;3.706;2024-02-21T13:33:17;23.45;;;9.18;;
32734;SDS011;19112;51.076;3.706;2024-02-21T13:35:43;24.52;;;9.80;;
32734;SDS011;19112;51.076;3.706;2024-02-21T13:38:09;22.48;;;9.38;;
32734;SDS011;19112;51.076;3.706;2024-02-21T13:40:35;21.17;;;8.27;;
32734;SDS011;19112;51.076;3.706;2024-02-21T13:43:02;18.90;;;8.27;;
32734;SDS011;19112;51.076;3.706;2024-02-21T13:45:28;16.73;;;7.20;;
32734;SDS011;19112;51.076;3.706;2024-02-21T13:47:54;22.98;;;7.72;;
32734;SDS011;19112;51.076;3.706;2024-02-21T13:50:23;20.65;;;7.63;;
32734;SDS011;19112;51.076;3.706;2024-02-21T13:52:55;20.90;;;7.60;;
32734;SDS011;19112;51.076;3.706;2024-02-21T13:55:21;20.17;;;7.63;;
32734;SDS011;19112;51.076;3.706;2024-02-21T13:57:47;20.98;;;7.25;;
32734;SDS011;19112;51.076;3.706;2024-02-21T14:00:14;18.45;;;7.10;;
32734;SDS011;19112;51.076;3.706;2024-02-21T14:02:40;20.90;;;7.32;;
32734;SDS011;19112;51.076;3.706;2024-02-21T14:05:07;20.92;;;7.78;;
32734;SDS011;19112;51.076;3.706;2024-02-21T14:07:34;17.23;;;6.78;;
32734;SDS011;19112;51.076;3.706;2024-02-21T14:09:59;22.55;;;8.23;;
32734;SDS011;19112;51.076;3.706;2024-02-21T14:12:25;19.00;;;8.90;;
32734;SDS011;19112;51.076;3.706;2024-02-21T14:14:51;20.85;;;7.05;;
32734;SDS011;19112;51.076;3.706;2024-02-21T14:17:17;21.33;;;7.38;;
32734;SDS011;19112;51.076;3.706;2024-02-21T14:19:46;17.20;;;7.22;;
32734;SDS011;19112;51.076;3.706;2024-02-21T14:22:12;23.65;;;7.50;;
32734;SDS011;19112;51.076;3.706;2024-02-21T14:24:37;19.50;;;7.03;;
32734;SDS011;19112;51.076;3.706;2024-02-21T14:27:03;19.42;;;7.03;;
32734;SDS011;19112;51.076;3.706;2024-02-21T14:29:29;18.38;;;7.40;;
32734;SDS011;19112;51.076;3.706;2024-02-21T14:31:56;21.77;;;7.35;;
32734;SDS011;19112;51.076;3.706;2024-02-21T14:34:22;21.48;;;7.72;;
32734;SDS011;19112;51.076;3.706;2024-02-21T14:36:48;23.27;;;7.60;;
32734;SDS011;19112;51.076;3.706;2024-02-21T14:39:16;22.10;;;7.95;;
32734;SDS011;19112;51.076;3.706;2024-02-21T14:41:43;19.35;;;7.22;;
32734;SDS011;19112;51.076;3.706;2024-02-21T14:44:11;21.65;;;8.02;;
32734;SDS011;19112;51.076;3.706;2024-02-21T14:46:42;19.63;;;7.47;;
32734;SDS011;19112;51.076;3.706;2024-02-21T14:49:08;22.10;;;7.43;;
32734;SDS011;19112;51.076;3.706;2024-02-21T14:51:34;25.40;;;8.30;;
32734;SDS011;19112;51.076;3.706;2024-02-21T14:53:59;18.80;;;6.88;;
32734;SDS011;19112;51.076;3.706;2024-02-21T14:56:25;22.73;;;7.70;;
32734;SDS011;19112;51.076;3.706;2024-02-21T14:58:53;21.10;;;7.97;;
32734;SDS011;19112;51.076;3.706;2024-02-21T15:01:20;22.02;;;7.85;;
32734;SDS011;19112;51.076;3.706;2024-02-21T15:03:46;20.65;;;7.93;;
32734;SDS011;19112;51.076;3.706;2024-02-21T15:06:12;23.77;;;8.20;;
32734;SDS011;19112;51.076;3.706;2024-02-21T15:08:37;21.63;;;7.85;;